Startpagina
METAR-TAF:

METAR-TAF

Vliegvelden :

Luchthaven Port Bouet

Abidjan, Ivoorkust

breedte: 05-15N, lengte: 003-56W, hoogte: 7 m

Actueel weer

Dit bericht is 24 minuten geleden gemaakt, om 10:30 UTC
Wind 8 kt uit het westzuidwesten, variërend tussen het zuidzuidwesten en het westen
Temperatuur 28°C
Vochtigheid 79%
Druk 1013 hPa
Zicht 10 km of meer
Verspreide wolken op 1200 ft
Gebroken wolken op 4000 ft

METAR: DIAP 191030Z 24008KT 210V280 9999 SCT012 BKN040 28/24 Q1013 NOSIG

Tijdstip: 10:54 (10:54 UTC)

Verwachting

Dit bericht is 5 uur en het 54 minuten geleden gemaakt, om 05:00 UTC
Verwachting geldig van 19 om 06 UTC tot 20 om 12 UTC
Wind 4 kt uit het westzuidwesten
Zicht: 8000 m
Verspreide wolken op 1200 ft
Wijzigt naar
van 19 om 06 UTC tot 19 om 09 UTC
Gebroken wolken op 1200 ft
Weinig wolken op 2000 ft, Cumulonimbus.
onweer
Wijzigt naar
van 19 om 15 UTC tot 19 om 18 UTC

TAF: DIAP 190500Z 1906/2012 24004KT 8000 SCT012 BECMG 1906/1909 TS BKN012 FEW020CB BECMG 1915/1918 NSW

Waarnemingen en weersverwachtingen van meer dan 4000 vliegvelden (METAR en TAF).

De beschikbare stations zijn de gele en rode punten op de kaart.

Ga met uw muis naar het station om de naam te zien.

Klik dan om waarnemingen en weersverwachtingen te zien.

kaart wijzigen: klik op de groene knoppen met een zwart kruis om in te zoomen, op de groene knop met een streepje om uit te zoomen of op de groene pijlen voor aangrenzende kaarten.


METAR-TAF: